Terminal Aerodrome Forecast
Issued by NWS New Orleans/Baton Rouge, LA

Home | Current Version | Previous Version | Text Only | Print | Product List | Glossary On
Versions: 1 2 3 4 5 6 7 8 9 10 11 12 13 14 15 16 17 18 19 20
000
FTUS44 KLIX 021831 AAA
TAFBTR
TAF AMD
KBTR 021831Z 0219/0318 00000KT P6SM FEW005 SCT020 BKN200
     FM022100 23006KT P6SM VCSH FEW010 BKN040 OVC150
     FM030200 30003KT P6SM VCSH SCT004 BKN040 OVC150
     FM031300 36003KT P6SM SCT004 BKN040 OVC150=

USA.gov is the U.S. government's official web portal to all federal, state and local government web resources and services.